Hami Airport


Codes: ZWHM/HMI
Name: Hami Airport
City: Hami
Country: China
Elevation: 2703 ft.
Wikipedia:

Photos at Hami Airport


   Photos courtesy of SpottingLog. You can add your own sightings and photos by signing up for a free trial today.



No photos found.

Weather at Hami Airport


Time (UTC)DescriptionTempratureWindCloud coverageVisibilityPressureHumidity
16-Jun-2024 09:00Clear Sky34°C13 mph, W0%10000m1002hPa18%
16-Jun-2024 12:00Clear Sky33°C7 mph, NW0%10000m1002hPa19%
16-Jun-2024 15:00Scattered Clouds31°C9 mph, NE46%10000m1002hPa21%
16-Jun-2024 18:00Broken Clouds28°C9 mph, NE63%10000m1002hPa24%
16-Jun-2024 21:00Light Rain26°C16 mph, NE77%10000m1002hPa29%
17-Jun-2024 00:00Broken Clouds26°C11 mph, E52%10000m1004hPa29%
17-Jun-2024 03:00Light Rain29°C7 mph, E11%10000m1005hPa24%
17-Jun-2024 06:00Clear Sky32°C4 mph, E4%10000m1002hPa19%
17-Jun-2024 09:00Clear Sky34°C9 mph, N0%10000m999hPa14%
17-Jun-2024 12:00Few Clouds34°C11 mph, N17%10000m998hPa14%
17-Jun-2024 15:00Scattered Clouds30°C11 mph, NE31%10000m1000hPa18%
17-Jun-2024 18:00Scattered Clouds27°C16 mph, NE39%10000m1001hPa21%
17-Jun-2024 21:00Broken Clouds25°C13 mph, NE78%10000m1001hPa25%
18-Jun-2024 00:00Broken Clouds26°C16 mph, NE63%10000m1002hPa23%
18-Jun-2024 03:00Scattered Clouds30°C13 mph, NE47%10000m1001hPa17%
18-Jun-2024 06:00Broken Clouds33°C11 mph, W60%10000m999hPa12%
18-Jun-2024 09:00Broken Clouds34°C16 mph, NW80%10000m997hPa13%
18-Jun-2024 12:00Broken Clouds32°C18 mph, N64%10000m996hPa16%
18-Jun-2024 15:00Broken Clouds29°C11 mph, NW57%10000m998hPa20%
18-Jun-2024 18:00Broken Clouds27°C9 mph, N51%10000m998hPa24%
18-Jun-2024 21:00Clear Sky25°C7 mph, N0%10000m998hPa27%
19-Jun-2024 00:00Clear Sky28°C13 mph, NE0%10000m999hPa24%
19-Jun-2024 03:00Clear Sky30°C11 mph, SW0%10000m999hPa20%
19-Jun-2024 06:00Clear Sky33°C4 mph, W0%10000m997hPa15%
19-Jun-2024 09:00Clear Sky34°C22 mph, NW7%10000m994hPa15%
19-Jun-2024 12:00Few Clouds32°C25 mph, NE20%10000m995hPa18%
19-Jun-2024 15:00Scattered Clouds27°C22 mph, NE30%10000m997hPa20%
19-Jun-2024 18:00Few Clouds25°C25 mph, N23%10000m999hPa21%
19-Jun-2024 21:00Overcast Clouds23°C11 mph, NE99%10000m1000hPa28%
20-Jun-2024 00:00Broken Clouds23°C16 mph, NE68%10000m1003hPa21%
20-Jun-2024 03:00Clear Sky26°C18 mph, N0%10000m1003hPa15%
20-Jun-2024 06:00Clear Sky28°C13 mph, NE0%10000m1001hPa10%
20-Jun-2024 09:00Clear Sky30°C18 mph, NE1%10000m1000hPa9%
20-Jun-2024 12:00Clear Sky29°C13 mph, NE0%10000m1001hPa12%
20-Jun-2024 15:00Clear Sky27°C22 mph, NE1%10000m1003hPa14%
20-Jun-2024 18:00Clear Sky24°C18 mph, NE0%10000m1004hPa16%
20-Jun-2024 21:00Clear Sky20°C9 mph, E0%10000m1005hPa24%
21-Jun-2024 00:00Clear Sky23°C9 mph, E0%10000m1006hPa19%
21-Jun-2024 03:00Clear Sky28°C13 mph, SE0%10000m1005hPa13%
21-Jun-2024 06:00Clear Sky30°C7 mph, S0%10000m1003hPa10%